Terminal Aerodrome Forecast
Issued by NWS Charleston, WV

Current Version | Previous Version | Text Only | Print | Product List | Glossary On
Versions: 1 2 3 4 5 6 7 8 9 10 11 12 13 14 15 16 17 18 19 20 21 22
000
FTUS41 KRLX 272034 AAA
TAFEKN
TAF AMD
KEKN 272034Z 2721/2818 27005KT 1/2SM +SHRA FG VCTS SCT007 BKN025CB
      TEMPO 2721/2724 3SM SHRA BR BKN035
     FM280000 VRB02KT 4SM SHRA VCTS OVC035CB
     FM280300 VRB02KT 3SM SHRA VCTS OVC022CB
     FM280600 VRB03KT 2SM SHRA OVC006
     FM281300 VRB02KT 4SM -SHRA VCTS BKN011CB
     FM281500 VRB02KT 6SM -SHRA VCTS BKN024CB=

USA.gov is the U.S. government's official web portal to all federal, state and local government web resources and services.